Time;durP1;ratioP1;P1;durP2;ratioP2;P2;SDS_P1;SDS_P2;PMS_P1;PMS_P2;Temp;Humidity;BMP_temperature;BMP_pressure;BME280_temperature;BME280_humidity;BME280_pressure;Samples;Min_cycle;Max_cycle;Signal;HPM_P1;HPM_P2
2023/12/12 00:00:19;;;;;;;1.70;1.60;;;-0.50;99.90;;;;;;5089643;28;20210;-68
2023/12/12 00:02:47;;;;;;;0.80;0.80;;;-0.50;99.90;;;;;;5089503;28;20243;-69
2023/12/12 00:05:13;;;;;;;0.80;0.80;;;-0.50;99.90;;;;;;5089220;28;20199;-71
2023/12/12 00:07:39;;;;;;;0.70;0.70;;;-0.60;99.90;;;;;;5089300;28;20262;-70
2023/12/12 00:10:06;;;;;;;1.42;1.23;;;-0.60;99.90;;;;;;5089766;28;20232;-70
2023/12/12 00:12:31;;;;;;;0.80;0.80;;;-0.50;99.90;;;;;;5089598;28;20200;-70
2023/12/12 00:14:57;;;;;;;0.70;0.70;;;-0.50;99.90;;;;;;5071253;28;20294;-70
2023/12/12 00:17:23;;;;;;;0.80;0.80;;;-0.50;99.90;;;;;;5089264;28;20532;-70
2023/12/12 00:19:49;;;;;;;0.80;0.80;;;-0.50;99.90;;;;;;5089362;28;20579;-70
2023/12/12 00:22:14;;;;;;;0.80;0.80;;;-0.50;99.90;;;;;;5089185;28;20276;-70
2023/12/12 00:24:40;;;;;;;0.70;0.70;;;-0.50;99.90;;;;;;5089393;28;20615;-70
2023/12/12 00:27:05;;;;;;;0.70;0.70;;;-0.60;99.90;;;;;;5089467;28;20663;-71
2023/12/12 00:29:35;;;;;;;0.70;0.70;;;-0.50;99.90;;;;;;5070819;28;20303;-70
2023/12/12 00:32:01;;;;;;;0.70;0.70;;;-0.60;99.90;;;;;;5089213;28;20185;-70
2023/12/12 00:34:27;;;;;;;0.80;0.80;;;-0.60;99.90;;;;;;5089225;28;20203;-70
2023/12/12 00:36:53;;;;;;;0.70;0.70;;;-0.60;99.90;;;;;;5089104;28;20198;-70
2023/12/12 00:39:18;;;;;;;0.70;0.70;;;-0.60;99.90;;;;;;5088910;28;20243;-70
2023/12/12 00:41:44;;;;;;;1.00;1.00;;;-0.70;99.90;;;;;;5088683;28;20247;-70
2023/12/12 00:44:10;;;;;;;0.85;0.82;;;-0.70;99.90;;;;;;5089143;28;20713;-70
2023/12/12 00:46:35;;;;;;;0.57;0.57;;;-0.70;99.90;;;;;;5089241;28;20267;-70
2023/12/12 00:49:01;;;;;;;0.70;0.70;;;-0.70;99.90;;;;;;5070686;28;20220;-70
2023/12/12 00:51:26;;;;;;;0.88;0.88;;;-0.70;99.90;;;;;;5088461;28;20711;-70
2023/12/12 00:53:52;;;;;;;0.75;0.75;;;-0.70;99.90;;;;;;5082002;28;20225;-70
2023/12/12 00:56:18;;;;;;;0.70;0.70;;;-0.70;99.90;;;;;;5068998;28;20200;-70
2023/12/12 00:58:44;;;;;;;0.70;0.70;;;-0.70;99.90;;;;;;5068863;28;20201;-70
2023/12/12 01:01:12;;;;;;;0.75;0.75;;;-0.70;99.90;;;;;;5068770;28;20188;-70
2023/12/12 01:03:38;;;;;;;0.70;0.70;;;-0.80;99.90;;;;;;5068647;28;20604;-70
2023/12/12 01:06:04;;;;;;;0.70;0.70;;;-0.80;99.90;;;;;;5047970;28;20653;-70
2023/12/12 01:08:29;;;;;;;0.60;0.60;;;-0.80;99.90;;;;;;5045277;28;20243;-71
2023/12/12 01:10:55;;;;;;;0.70;0.70;;;-0.70;99.90;;;;;;5048602;28;20196;-71
2023/12/12 01:13:21;;;;;;;0.70;0.70;;;-0.80;99.90;;;;;;5048691;28;20696;-71
2023/12/12 01:15:46;;;;;;;1.55;1.45;;;-0.80;99.90;;;;;;5048861;28;20236;-72
2023/12/12 01:18:12;;;;;;;0.60;0.60;;;-0.90;99.90;;;;;;5033710;28;20244;-71
2023/12/12 01:20:37;;;;;;;0.70;0.70;;;-0.90;99.90;;;;;;5034199;28;20335;-72
2023/12/12 01:23:03;;;;;;;0.90;0.90;;;-0.90;99.90;;;;;;5052391;28;20191;-72
2023/12/12 01:25:30;;;;;;;0.80;0.80;;;-0.90;99.90;;;;;;5052533;28;20552;-72
2023/12/12 01:27:55;;;;;;;1.35;1.25;;;-0.90;99.90;;;;;;5052408;28;20208;-72
2023/12/12 01:30:21;;;;;;;0.70;0.70;;;-0.90;99.90;;;;;;5066763;28;20226;-72
2023/12/12 01:32:46;;;;;;;0.57;0.57;;;-0.90;99.90;;;;;;5072296;28;20192;-72
2023/12/12 01:35:12;;;;;;;0.80;0.80;;;-0.90;99.90;;;;;;5072583;28;20196;-72
2023/12/12 01:37:38;;;;;;;0.60;0.60;;;-0.90;99.90;;;;;;5072067;28;20208;-71
2023/12/12 01:40:04;;;;;;;0.60;0.60;;;-0.90;99.90;;;;;;5072011;28;20252;-71
2023/12/12 01:42:30;;;;;;;0.60;0.60;;;-0.80;99.90;;;;;;5053946;28;20237;-71
2023/12/12 01:44:56;;;;;;;1.05;1.05;;;-0.80;99.90;;;;;;5054021;28;20208;-72
2023/12/12 01:47:22;;;;;;;0.70;0.70;;;-0.80;99.90;;;;;;5071949;28;20551;-72
2023/12/12 01:49:48;;;;;;;0.60;0.60;;;-0.80;99.90;;;;;;5054027;28;20208;-71
2023/12/12 01:52:15;;;;;;;0.63;0.63;;;-0.80;99.90;;;;;;5072254;28;20231;-72
2023/12/12 01:54:47;;;;;;;0.75;0.75;;;-0.80;99.90;;;;;;5085556;28;20228;-71
2023/12/12 01:57:15;;;;;;;0.90;0.90;;;-0.80;99.90;;;;;;5092436;28;20275;-72
2023/12/12 01:59:41;;;;;;;0.80;0.80;;;-0.80;99.90;;;;;;5092010;28;20222;-71
2023/12/12 02:02:09;;;;;;;0.82;0.82;;;-0.80;99.90;;;;;;5092024;28;20188;-71
2023/12/12 02:04:35;;;;;;;0.70;0.70;;;-0.80;99.90;;;;;;5071402;28;20205;-72
2023/12/12 02:07:03;;;;;;;0.90;0.90;;;-0.80;99.90;;;;;;5071793;28;20196;-71
2023/12/12 02:09:30;;;;;;;0.60;0.60;;;-0.90;99.90;;;;;;5071557;28;20296;-72
2023/12/12 02:11:56;;;;;;;1.58;1.48;;;-0.80;99.90;;;;;;5071815;28;20224;-72
2023/12/12 02:14:21;;;;;;;0.70;0.70;;;-0.80;99.90;;;;;;5053099;28;20696;-71
2023/12/12 02:16:47;;;;;;;0.70;0.70;;;-0.80;99.90;;;;;;5071683;28;20213;-72
2023/12/12 02:19:13;;;;;;;0.93;0.93;;;-0.70;99.90;;;;;;5071491;28;20641;-72
2023/12/12 02:21:38;;;;;;;0.70;0.70;;;-0.80;99.90;;;;;;5070807;28;20228;-71
2023/12/12 02:24:04;;;;;;;0.80;0.80;;;-0.80;99.90;;;;;;5053023;28;20207;-70
2023/12/12 02:26:30;;;;;;;0.75;0.75;;;-0.80;99.90;;;;;;5084878;28;20196;-70
2023/12/12 02:28:56;;;;;;;0.80;0.80;;;-0.80;99.90;;;;;;5082355;28;20195;-71
2023/12/12 02:31:22;;;;;;;0.68;0.68;;;-0.80;99.90;;;;;;5073596;28;20703;-70
2023/12/12 02:33:47;;;;;;;0.70;0.70;;;-0.80;99.90;;;;;;5091259;28;20211;-71
2023/12/12 02:36:15;;;;;;;0.70;0.70;;;-0.80;99.90;;;;;;5073235;28;20206;-71
2023/12/12 02:38:40;;;;;;;0.70;0.70;;;-0.80;99.90;;;;;;5091185;28;20202;-71
2023/12/12 02:41:06;;;;;;;0.70;0.70;;;-0.80;99.90;;;;;;5091108;28;20200;-70
2023/12/12 02:43:32;;;;;;;0.75;0.75;;;-0.90;99.90;;;;;;5091252;28;20219;-70
2023/12/12 02:45:57;;;;;;;0.70;0.70;;;-0.90;99.90;;;;;;5091227;28;20188;-70
2023/12/12 02:48:23;;;;;;;0.80;0.80;;;-0.90;99.90;;;;;;5091144;28;20274;-70
2023/12/12 02:50:49;;;;;;;0.73;0.73;;;-0.90;99.90;;;;;;5091309;28;20234;-70
2023/12/12 02:53:14;;;;;;;0.63;0.63;;;-0.90;99.90;;;;;;5091207;28;20200;-71
2023/12/12 02:55:40;;;;;;;0.60;0.60;;;-0.80;99.90;;;;;;5091111;28;20208;-70
2023/12/12 02:58:06;;;;;;;0.80;0.80;;;-0.80;99.90;;;;;;5072840;28;20290;-71
2023/12/12 03:00:31;;;;;;;2.58;1.17;;;-0.80;99.90;;;;;;5073027;28;20303;-71
2023/12/12 03:02:57;;;;;;;0.60;0.60;;;-0.80;99.90;;;;;;5070938;28;20200;-71
2023/12/12 03:05:22;;;;;;;0.65;0.65;;;-0.80;99.90;;;;;;5070725;28;20216;-71
2023/12/12 03:07:48;;;;;;;0.70;0.70;;;-0.80;99.90;;;;;;5070984;28;20203;-71
2023/12/12 03:10:14;;;;;;;0.70;0.70;;;-0.80;99.90;;;;;;5071168;28;20236;-71
2023/12/12 03:12:39;;;;;;;0.68;0.68;;;-0.80;99.90;;;;;;5070476;28;20283;-71
2023/12/12 03:15:05;;;;;;;0.77;0.77;;;-0.90;99.90;;;;;;5052513;28;20201;-71
2023/12/12 03:17:31;;;;;;;0.70;0.70;;;-0.90;99.90;;;;;;5072676;28;20204;-72
2023/12/12 03:19:56;;;;;;;0.70;0.70;;;-0.90;99.90;;;;;;5090635;28;20696;-71
2023/12/12 03:22:22;;;;;;;0.60;0.60;;;-0.90;99.90;;;;;;5079261;28;20251;-71
2023/12/12 03:24:48;;;;;;;0.75;0.75;;;-1.00;99.90;;;;;;5052502;28;20299;-71
2023/12/12 03:27:13;;;;;;;0.80;0.80;;;-1.00;99.90;;;;;;5070200;28;20240;-72
2023/12/12 03:29:39;;;;;;;0.60;0.60;;;-1.00;99.90;;;;;;5080522;28;20331;-73
2023/12/12 03:32:05;;;;;;;0.70;0.70;;;-1.00;99.90;;;;;;5090470;28;20201;-72
2023/12/12 03:34:30;;;;;;;0.60;0.60;;;-1.00;99.90;;;;;;5090468;28;20200;-71
2023/12/12 03:36:56;;;;;;;0.70;0.70;;;-1.00;99.90;;;;;;5090457;28;20605;-72
2023/12/12 03:39:22;;;;;;;0.63;0.63;;;-1.00;99.90;;;;;;5090193;28;20290;-72
2023/12/12 03:41:48;;;;;;;0.73;0.73;;;-1.10;99.90;;;;;;5089963;28;20200;-72
2023/12/12 03:44:14;;;;;;;0.60;0.60;;;-1.10;99.90;;;;;;5090234;28;20192;-74
2023/12/12 03:46:39;;;;;;;0.70;0.70;;;-1.10;99.90;;;;;;5090130;28;20188;-72
2023/12/12 03:49:05;;;;;;;0.70;0.70;;;-1.10;99.90;;;;;;5090143;28;20188;-73
2023/12/12 03:51:31;;;;;;;0.75;0.75;;;-1.10;99.90;;;;;;5089945;28;20202;-72
2023/12/12 03:53:56;;;;;;;0.60;0.60;;;-1.10;99.90;;;;;;5089881;28;20231;-73
2023/12/12 03:56:22;;;;;;;0.60;0.60;;;-1.20;99.90;;;;;;5075303;28;20676;-73
2023/12/12 03:58:47;;;;;;;0.70;0.70;;;-1.10;99.90;;;;;;5069514;28;20204;-72
2023/12/12 04:01:13;;;;;;;0.60;0.60;;;-1.10;99.90;;;;;;5069320;28;20196;-72
2023/12/12 04:03:39;;;;;;;0.70;0.70;;;-1.20;99.90;;;;;;5059641;28;20197;-72
2023/12/12 04:06:06;;;;;;;0.73;0.73;;;-1.10;99.90;;;;;;5089795;28;20328;-72
2023/12/12 04:08:31;;;;;;;0.70;0.70;;;-1.20;99.90;;;;;;5089390;28;20192;-72
2023/12/12 04:10:57;;;;;;;0.70;0.70;;;-1.20;99.90;;;;;;5089671;28;20249;-73
2023/12/12 04:13:23;;;;;;;0.70;0.70;;;-1.20;99.90;;;;;;5089515;28;20194;-72
2023/12/12 04:15:48;;;;;;;0.70;0.70;;;-1.20;99.90;;;;;;5089467;28;20318;-72
2023/12/12 04:18:14;;;;;;;0.80;0.80;;;-1.20;99.90;;;;;;5090025;28;20250;-72
2023/12/12 04:20:40;;;;;;;0.70;0.70;;;-1.20;99.90;;;;;;5070899;28;20218;-72
2023/12/12 04:23:05;;;;;;;0.73;0.73;;;-1.20;99.90;;;;;;5089482;28;20195;-71
2023/12/12 04:25:32;;;;;;;0.68;0.68;;;-1.30;99.90;;;;;;5089073;28;20200;-73
2023/12/12 04:27:58;;;;;;;0.75;0.75;;;-1.30;99.90;;;;;;5089788;28;20246;-73
2023/12/12 04:30:24;;;;;;;0.80;0.80;;;-1.30;99.90;;;;;;5089249;28;20192;-73
2023/12/12 04:32:50;;;;;;;1.50;1.40;;;-1.30;99.90;;;;;;5089588;28;20196;-71
2023/12/12 04:35:16;;;;;;;0.70;0.70;;;-1.30;99.90;;;;;;5089495;28;20227;-68
2023/12/12 04:37:42;;;;;;;0.50;0.50;;;-1.30;99.90;;;;;;5088965;28;20188;-70
2023/12/12 04:40:07;;;;;;;0.70;0.70;;;-1.30;99.90;;;;;;5089168;28;20607;-68
2023/12/12 04:42:33;;;;;;;0.70;0.70;;;-1.30;99.90;;;;;;5088649;28;20196;-69
2023/12/12 04:44:59;;;;;;;0.70;0.70;;;-1.40;99.90;;;;;;5089181;28;20605;-69
2023/12/12 04:47:24;;;;;;;0.70;0.70;;;-1.40;99.90;;;;;;5088808;28;20196;-68
2023/12/12 04:49:51;;;;;;;0.80;0.80;;;-1.40;99.90;;;;;;5089009;28;20214;-68
2023/12/12 04:52:16;;;;;;;1.52;1.42;;;-1.40;99.90;;;;;;5076912;28;20192;-68
2023/12/12 04:54:42;;;;;;;0.70;0.70;;;-1.40;99.90;;;;;;5050482;28;20243;-68
2023/12/12 04:57:08;;;;;;;1.00;1.00;;;-1.40;99.90;;;;;;5068729;28;20204;-68
2023/12/12 04:59:34;;;;;;;0.80;0.80;;;-1.40;99.90;;;;;;5068705;28;20208;-70
2023/12/12 05:01:59;;;;;;;0.70;0.70;;;-1.40;99.90;;;;;;5068703;28;20196;-70
2023/12/12 05:04:25;;;;;;;0.70;0.70;;;-1.40;99.90;;;;;;5068572;28;20192;-68
2023/12/12 05:06:50;;;;;;;0.77;0.77;;;-1.40;99.90;;;;;;5050514;28;20196;-68
2023/12/12 05:09:17;;;;;;;0.77;0.77;;;-1.50;99.90;;;;;;5068300;28;20589;-68
2023/12/12 05:11:43;;;;;;;0.90;0.90;;;-1.50;99.90;;;;;;5068530;28;20197;-68
2023/12/12 05:14:10;;;;;;;0.70;0.70;;;-1.50;99.90;;;;;;5073382;28;20282;-67
2023/12/12 05:16:36;;;;;;;0.70;0.70;;;-1.50;99.90;;;;;;5088574;28;20192;-69
2023/12/12 05:19:02;;;;;;;0.70;0.70;;;-1.50;99.90;;;;;;5088753;28;20705;-68
2023/12/12 05:21:28;;;;;;;0.80;0.80;;;-1.50;99.90;;;;;;5088232;28;20218;-68
2023/12/12 05:23:54;;;;;;;1.08;1.02;;;-1.50;99.90;;;;;;5088736;28;20192;-68
2023/12/12 05:26:20;;;;;;;0.70;0.70;;;-1.50;99.90;;;;;;5088645;28;20195;-70
2023/12/12 05:28:46;;;;;;;0.80;0.80;;;-1.50;99.90;;;;;;5088866;28;20188;-67
2023/12/12 05:31:11;;;;;;;0.70;0.70;;;-1.50;99.90;;;;;;5070892;28;20203;-68
2023/12/12 05:33:37;;;;;;;0.80;0.80;;;-1.50;99.90;;;;;;5069992;28;20659;-69
2023/12/12 05:36:03;;;;;;;0.77;0.77;;;-1.60;99.90;;;;;;5088514;28;20341;-68
2023/12/12 05:38:29;;;;;;;0.80;0.80;;;-1.50;99.90;;;;;;5088429;28;20196;-69
2023/12/12 05:40:56;;;;;;;0.77;0.77;;;-1.60;99.90;;;;;;5088160;28;20234;-70
2023/12/12 05:43:22;;;;;;;0.70;0.70;;;-1.60;99.90;;;;;;5088173;28;20686;-69
2023/12/12 05:45:47;;;;;;;1.73;1.55;;;-1.60;99.90;;;;;;5088669;28;20188;-71
2023/12/12 05:48:13;;;;;;;0.70;0.70;;;-1.60;99.90;;;;;;5079405;28;20735;-70
2023/12/12 05:50:39;;;;;;;0.73;0.73;;;-1.60;99.90;;;;;;5068162;28;21177;-70
2023/12/12 05:53:04;;;;;;;0.77;0.77;;;-1.60;99.90;;;;;;5068535;28;20208;-70
2023/12/12 05:55:30;;;;;;;0.70;0.70;;;-1.60;99.90;;;;;;5068596;28;20197;-70
2023/12/12 05:57:56;;;;;;;0.80;0.80;;;-1.60;99.90;;;;;;5068222;28;20558;-69
2023/12/12 06:00:22;;;;;;;0.63;0.63;;;-1.70;99.90;;;;;;5068520;28;20197;-68
2023/12/12 06:02:48;;;;;;;0.70;0.70;;;-1.70;99.90;;;;;;5068447;28;20212;-68
2023/12/12 06:05:13;;;;;;;0.80;0.80;;;-1.70;99.90;;;;;;5053303;28;20197;-69
2023/12/12 06:07:41;;;;;;;0.70;0.70;;;-1.70;99.90;;;;;;5071555;28;20240;-69
2023/12/12 06:10:08;;;;;;;0.60;0.60;;;-1.70;99.90;;;;;;5071851;28;20275;-70
2023/12/12 06:12:34;;;;;;;0.70;0.70;;;-1.70;99.90;;;;;;5071328;28;20660;-69
2023/12/12 06:15:00;;;;;;;0.70;0.70;;;-1.70;99.90;;;;;;5071547;28;20201;-65
2023/12/12 06:17:26;;;;;;;0.70;0.70;;;-1.70;99.90;;;;;;5073422;28;20211;-70
2023/12/12 06:19:52;;;;;;;0.75;0.75;;;-1.70;99.90;;;;;;5091631;28;20214;-70
2023/12/12 06:22:18;;;;;;;0.63;0.63;;;-1.70;99.90;;;;;;5091574;28;20207;-69
2023/12/12 06:24:45;;;;;;;0.70;0.70;;;-1.80;99.90;;;;;;5091617;28;20200;-70
2023/12/12 06:27:11;;;;;;;0.63;0.63;;;-1.70;99.90;;;;;;5091679;28;20234;-68
2023/12/12 06:29:36;;;;;;;0.80;0.80;;;-1.70;99.90;;;;;;5091802;28;20235;-69
2023/12/12 06:32:02;;;;;;;0.80;0.80;;;-1.70;99.90;;;;;;5091525;28;20207;-69
2023/12/12 06:34:28;;;;;;;0.70;0.70;;;-1.70;99.90;;;;;;5091347;28;20196;-68
2023/12/12 06:36:54;;;;;;;0.68;0.68;;;-1.70;99.90;;;;;;5091480;28;20724;-69
2023/12/12 06:39:20;;;;;;;0.63;0.63;;;-1.80;99.90;;;;;;5091353;28;20192;-70
2023/12/12 06:41:46;;;;;;;0.75;0.75;;;-1.70;99.90;;;;;;5091147;28;20198;-68
2023/12/12 06:44:11;;;;;;;0.75;0.75;;;-1.70;99.90;;;;;;5084749;28;20266;-69
2023/12/12 06:46:37;;;;;;;0.70;0.70;;;-1.70;99.90;;;;;;5052972;28;20189;-68
2023/12/12 06:49:06;;;;;;;0.60;0.60;;;-1.70;99.90;;;;;;5071152;28;20201;-68
2023/12/12 06:51:32;;;;;;;0.80;0.80;;;-1.80;99.90;;;;;;5070971;28;20220;-68
2023/12/12 06:53:58;;;;;;;0.75;0.75;;;-1.80;99.90;;;;;;5070913;28;20278;-68
2023/12/12 06:56:25;;;;;;;0.80;0.80;;;-1.80;99.90;;;;;;5070690;28;20220;-67
2023/12/12 06:58:51;;;;;;;0.70;0.70;;;-1.80;99.90;;;;;;5070833;28;20220;-68
2023/12/12 07:01:17;;;;;;;0.77;0.77;;;-1.80;99.90;;;;;;5071216;28;20188;-69
2023/12/12 07:03:43;;;;;;;0.70;0.70;;;-1.80;99.90;;;;;;5070491;28;20197;-68
2023/12/12 07:06:09;;;;;;;0.80;0.80;;;-1.80;99.90;;;;;;5071218;28;20196;-71
2023/12/12 07:08:35;;;;;;;0.88;0.88;;;-1.80;99.90;;;;;;5090581;28;20192;-71
2023/12/12 07:11:01;;;;;;;0.60;0.60;;;-1.90;99.90;;;;;;5090803;28;20204;-71
2023/12/12 07:13:27;;;;;;;0.70;0.70;;;-1.80;99.90;;;;;;5090432;28;20196;-73
2023/12/12 07:15:53;;;;;;;0.70;0.70;;;-1.80;99.90;;;;;;5090206;28;20558;-71
2023/12/12 07:18:19;;;;;;;1.23;1.15;;;-1.80;99.90;;;;;;5090468;28;20694;-71
2023/12/12 07:20:45;;;;;;;0.70;0.70;;;-1.80;99.90;;;;;;5072224;28;20212;-71
2023/12/12 07:23:11;;;;;;;1.55;1.42;;;-1.80;99.90;;;;;;5090651;28;20211;-71
2023/12/12 07:25:38;;;;;;;0.90;0.90;;;-1.80;99.90;;;;;;5090352;28;20184;-71
2023/12/12 07:28:05;;;;;;;0.73;0.73;;;-1.80;99.90;;;;;;5090515;28;20184;-71
2023/12/12 07:30:32;;;;;;;0.63;0.63;;;-1.80;99.90;;;;;;5072022;28;20345;-71
2023/12/12 07:32:58;;;;;;;0.85;0.85;;;-1.90;99.90;;;;;;5090359;28;20200;-71
2023/12/12 07:35:24;;;;;;;0.88;0.88;;;-1.90;99.90;;;;;;5090115;28;20200;-71
2023/12/12 07:37:50;;;;;;;4.10;2.55;;;-1.90;99.90;;;;;;5090335;28;20185;-71
2023/12/12 07:40:16;;;;;;;0.80;0.80;;;-1.90;99.90;;;;;;5084958;28;20205;-71
2023/12/12 07:42:42;;;;;;;0.80;0.80;;;-1.90;99.90;;;;;;5069734;28;20287;-71
2023/12/12 07:45:08;;;;;;;0.70;0.70;;;-1.90;99.90;;;;;;5069893;28;20185;-71
2023/12/12 07:47:34;;;;;;;0.70;0.70;;;-1.90;99.90;;;;;;5069797;28;20243;-71
2023/12/12 07:50:00;;;;;;;0.85;0.85;;;-1.90;99.90;;;;;;5069939;28;20197;-75
2023/12/12 07:52:26;;;;;;;0.80;0.80;;;-1.90;99.90;;;;;;5051620;28;20197;-71
2023/12/12 07:54:51;;;;;;;1.33;1.23;;;-1.90;99.90;;;;;;5070030;28;20320;-71
2023/12/12 07:57:17;;;;;;;0.90;0.90;;;-1.90;99.90;;;;;;5069760;28;20720;-71
2023/12/12 07:59:44;;;;;;;0.75;0.75;;;-1.90;99.90;;;;;;5069348;28;20228;-71
2023/12/12 08:02:10;;;;;;;1.08;1.08;;;-1.90;99.90;;;;;;5051685;28;20680;-71
2023/12/12 08:04:36;;;;;;;0.80;0.80;;;-1.90;99.90;;;;;;5088295;28;20201;-71
2023/12/12 08:07:03;;;;;;;0.80;0.80;;;-1.90;99.90;;;;;;5089794;28;20403;-71
2023/12/12 08:09:29;;;;;;;0.70;0.70;;;-1.90;99.90;;;;;;5071287;28;20307;-71
2023/12/12 08:11:55;;;;;;;0.70;0.70;;;-1.90;99.90;;;;;;5089581;28;20294;-71
2023/12/12 08:14:21;;;;;;;2.33;1.55;;;-1.80;99.90;;;;;;5089579;28;20671;-71
2023/12/12 08:16:47;;;;;;;0.85;0.85;;;-1.80;99.90;;;;;;5071105;28;20281;-71
2023/12/12 08:19:14;;;;;;;0.70;0.70;;;-1.80;99.90;;;;;;5089689;28;20231;-72
2023/12/12 08:21:40;;;;;;;1.70;1.60;;;-1.90;99.90;;;;;;5089300;28;20233;-72
2023/12/12 08:24:06;;;;;;;0.85;0.85;;;-1.80;99.90;;;;;;5089476;28;20551;-72
2023/12/12 08:26:43;;;;;;;0.88;0.88;;;-1.80;99.90;;;;;;5088558;28;20184;-72
2023/12/12 08:29:09;;;;;;;1.00;0.95;;;-1.80;99.90;;;;;;5089240;28;20195;-71
2023/12/12 08:31:37;;;;;;;0.70;0.70;;;-1.80;99.90;;;;;;5089243;28;20567;-71
2023/12/12 08:34:02;;;;;;;0.70;0.70;;;-1.80;99.90;;;;;;5089263;28;20192;-71
2023/12/12 08:36:29;;;;;;;0.70;0.70;;;-1.80;99.90;;;;;;5084178;28;20208;-72
2023/12/12 08:38:55;;;;;;;0.70;0.70;;;-1.80;99.90;;;;;;5068996;28;20254;-72
2023/12/12 08:41:21;;;;;;;0.90;0.90;;;-1.80;99.90;;;;;;5082648;28;20701;-71
2023/12/12 08:43:47;;;;;;;0.88;0.88;;;-1.80;99.90;;;;;;5071071;28;20200;-71
2023/12/12 08:46:12;;;;;;;0.90;0.90;;;-1.70;99.90;;;;;;5089176;28;20337;-72
2023/12/12 08:48:38;;;;;;;0.70;0.70;;;-1.80;99.90;;;;;;5088949;28;20555;-72
2023/12/12 08:51:04;;;;;;;1.35;1.20;;;-1.80;99.90;;;;;;5089029;28;20593;-71
2023/12/12 08:53:30;;;;;;;0.60;0.60;;;-1.80;99.90;;;;;;5088354;28;20715;-71
2023/12/12 08:55:56;;;;;;;0.70;0.70;;;-1.80;99.90;;;;;;5089014;28;20203;-72
2023/12/12 08:58:25;;;;;;;0.73;0.73;;;-1.70;99.90;;;;;;5088825;28;20203;-72
2023/12/12 09:00:54;;;;;;;0.77;0.77;;;-1.70;99.90;;;;;;5069651;28;20594;-71
2023/12/12 09:03:20;;;;;;;0.70;0.70;;;-1.70;99.90;;;;;;5068598;28;20225;-71
2023/12/12 09:05:46;;;;;;;0.80;0.80;;;-1.70;99.90;;;;;;5050437;28;20227;-70
2023/12/12 09:08:12;;;;;;;0.85;0.85;;;-1.70;99.90;;;;;;5087773;28;20374;-71
2023/12/12 09:10:37;;;;;;;1.60;1.50;;;-1.70;99.90;;;;;;5070187;28;20208;-72
2023/12/12 09:13:06;;;;;;;0.75;0.75;;;-1.70;99.90;;;;;;5088786;28;20215;-71
2023/12/12 09:15:32;;;;;;;1.00;0.77;;;-1.70;99.90;;;;;;5088738;28;20545;-71
2023/12/12 09:17:58;;;;;;;0.80;0.80;;;-1.70;99.90;;;;;;5088779;28;20207;-71
2023/12/12 09:20:23;;;;;;;1.00;1.00;;;-1.70;99.90;;;;;;5070249;28;20204;-71
2023/12/12 09:22:49;;;;;;;0.80;0.80;;;-1.70;99.90;;;;;;5088658;28;20202;-72
2023/12/12 09:25:15;;;;;;;0.70;0.70;;;-1.70;99.90;;;;;;5070609;28;20293;-68
2023/12/12 09:27:40;;;;;;;0.70;0.70;;;-1.60;99.90;;;;;;5088448;28;20206;-68
2023/12/12 09:30:06;;;;;;;6.30;2.03;;;-1.60;99.90;;;;;;5088953;28;20596;-69
2023/12/12 09:32:32;;;;;;;1.15;1.13;;;-1.70;99.90;;;;;;5085012;28;20221;-67
2023/12/12 09:34:58;;;;;;;1.23;1.17;;;-1.70;99.90;;;;;;5068867;28;20192;-71
2023/12/12 09:37:23;;;;;;;1.02;1.02;;;-1.60;99.90;;;;;;5068664;28;20743;-72
2023/12/12 09:39:50;;;;;;;0.90;0.90;;;-1.60;99.90;;;;;;5073504;28;20706;-71
2023/12/12 09:42:21;;;;;;;0.80;0.80;;;-1.60;99.90;;;;;;5092548;28;20188;-71
2023/12/12 09:45:00;;;;;;;0.57;0.57;;;-1.60;99.90;;;;;;5092671;28;20678;-72
2023/12/12 09:47:30;;;;;;;0.70;0.70;;;-1.60;99.90;;;;;;5073858;28;20246;-71
2023/12/12 09:49:58;;;;;;;0.70;0.70;;;-1.60;99.90;;;;;;5092410;28;20207;-71
2023/12/12 09:52:26;;;;;;;0.80;0.80;;;-1.60;99.90;;;;;;5074225;28;20234;-72
2023/12/12 09:54:52;;;;;;;0.70;0.70;;;-1.60;99.90;;;;;;5092059;28;20247;-71
2023/12/12 09:57:19;;;;;;;0.80;0.80;;;-1.60;99.90;;;;;;5072566;28;20234;-72
2023/12/12 09:59:44;;;;;;;0.70;0.70;;;-1.60;99.90;;;;;;5053884;28;20712;-71
2023/12/12 10:02:20;;;;;;;0.80;0.80;;;-1.60;99.90;;;;;;5071930;28;20232;-71
2023/12/12 10:04:46;;;;;;;0.85;0.85;;;-1.60;99.90;;;;;;5071789;28;20282;-71
2023/12/12 10:07:17;;;;;;;0.70;0.70;;;-1.50;99.90;;;;;;5071977;28;20197;-71
2023/12/12 10:09:43;;;;;;;0.80;0.80;;;-1.50;99.90;;;;;;5071487;28;20193;-71
2023/12/12 10:12:08;;;;;;;0.80;0.80;;;-1.50;99.90;;;;;;5071803;28;20555;-71
2023/12/12 10:14:44;;;;;;;0.80;0.80;;;-1.60;99.90;;;;;;5071582;28;20258;-71
2023/12/12 10:17:11;;;;;;;0.73;0.73;;;-1.60;99.90;;;;;;5071567;28;20200;-71
2023/12/12 10:19:41;;;;;;;0.80;0.80;;;-1.50;99.90;;;;;;5071724;28;20200;-71
2023/12/12 10:22:10;;;;;;;0.80;0.80;;;-1.50;99.90;;;;;;5071864;28;20596;-71
2023/12/12 10:24:36;;;;;;;0.75;0.75;;;-1.50;99.90;;;;;;5071232;28;20189;-72
2023/12/12 10:27:03;;;;;;;0.90;0.90;;;-1.50;99.90;;;;;;5071621;28;20250;-71
2023/12/12 10:29:31;;;;;;;0.80;0.80;;;-1.50;99.90;;;;;;5071092;28;20250;-70
2023/12/12 10:31:58;;;;;;;2.42;2.22;;;-1.50;99.90;;;;;;5071193;28;20233;-71
2023/12/12 10:34:27;;;;;;;4.13;2.05;;;-1.50;99.90;;;;;;5071139;28;20188;-69
2023/12/12 10:36:58;;;;;;;0.90;0.90;;;-1.40;99.90;;;;;;5054497;28;20205;-69
2023/12/12 10:39:30;;;;;;;0.80;0.80;;;-1.50;99.90;;;;;;5070979;28;20668;-68
2023/12/12 10:41:56;;;;;;;2.70;2.40;;;-1.50;99.90;;;;;;5089739;28;20195;-68
2023/12/12 10:44:31;;;;;;;1.70;1.60;;;-1.50;99.90;;;;;;5074321;28;20512;-68
2023/12/12 10:46:59;;;;;;;5.00;1.63;;;-1.50;99.90;;;;;;5091463;28;20188;-67
2023/12/12 10:49:31;;;;;;;1.95;1.83;;;-1.50;99.90;;;;;;5090434;28;20192;-68
2023/12/12 10:51:58;;;;;;;1.63;1.50;;;-1.50;99.90;;;;;;5083934;28;20620;-69
2023/12/12 10:54:26;;;;;;;0.80;0.80;;;-1.50;99.90;;;;;;5070795;28;20250;-67
2023/12/12 10:56:53;;;;;;;0.85;0.85;;;-1.50;99.90;;;;;;5071198;28;20707;-69
2023/12/12 10:59:21;;;;;;;0.80;0.80;;;-1.50;99.90;;;;;;5078197;28;20224;-67
2023/12/12 11:01:48;;;;;;;1.35;1.25;;;-1.50;99.90;;;;;;5072530;28;20278;-68
2023/12/12 11:04:17;;;;;;;2.00;1.17;;;-1.40;99.90;;;;;;5090969;28;20560;-68
2023/12/12 11:06:43;;;;;;;1.98;1.77;;;-1.40;99.90;;;;;;5090536;28;20184;-68
2023/12/12 11:09:10;;;;;;;0.77;0.77;;;-1.40;99.90;;;;;;5090853;28;20253;-67
2023/12/12 11:11:39;;;;;;;2.97;2.45;;;-1.50;99.90;;;;;;5072245;28;20654;-68
2023/12/12 11:14:07;;;;;;;0.65;0.65;;;-1.50;99.90;;;;;;5090663;28;20222;-70
2023/12/12 11:16:33;;;;;;;0.73;0.73;;;-1.50;99.90;;;;;;5090503;28;20689;-67
2023/12/12 11:19:01;;;;;;;0.73;0.73;;;-1.40;99.90;;;;;;5090652;28;20188;-68
2023/12/12 11:21:46;;;;;;;0.70;0.70;;;-1.50;99.90;;;;;;5090544;28;20218;-68
2023/12/12 11:24:14;;;;;;;0.80;0.80;;;-1.50;99.90;;;;;;5072295;28;20203;-72
2023/12/12 11:26:45;;;;;;;0.80;0.80;;;-1.50;99.90;;;;;;5090294;28;20227;-68
2023/12/12 11:29:13;;;;;;;0.70;0.70;;;-1.50;99.90;;;;;;5090501;28;20561;-69
2023/12/12 11:32:02;;;;;;;0.80;0.80;;;-1.50;99.90;;;;;;5090330;28;20196;-71
2023/12/12 11:34:40;;;;;;;0.70;0.70;;;-1.50;99.90;;;;;;5090488;28;20202;-68
2023/12/12 11:37:08;;;;;;;0.70;0.70;;;-1.50;99.90;;;;;;5090484;28;20724;-68
2023/12/12 11:39:41;;;;;;;0.70;0.70;;;-1.50;99.90;;;;;;5090004;28;20204;-69
2023/12/12 11:42:16;;;;;;;0.80;0.80;;;-1.50;99.90;;;;;;5071865;28;20245;-68
2023/12/12 11:44:46;;;;;;;3.33;2.25;;;-1.50;99.90;;;;;;5090019;28;20198;-68
2023/12/12 11:47:23;;;;;;;1.77;1.67;;;-1.50;99.90;;;;;;5090385;28;20192;-71
2023/12/12 11:49:49;;;;;;;0.70;0.70;;;-1.50;99.90;;;;;;5070159;28;20230;-71
2023/12/12 11:52:36;;;;;;;0.80;0.80;;;-1.40;99.90;;;;;;5069780;28;20197;-71
2023/12/12 11:55:02;;;;;;;0.80;0.80;;;-1.50;99.90;;;;;;5072535;28;20360;-71
2023/12/12 11:57:29;;;;;;;0.80;0.80;;;-1.40;99.90;;;;;;5105310;28;20283;-71
2023/12/12 11:59:55;;;;;;;0.70;0.70;;;-1.40;99.90;;;;;;5102302;28;20218;-71
2023/12/12 12:02:20;;;;;;;0.80;0.80;;;-1.50;99.90;;;;;;5125864;27;20196;-71
2023/12/12 12:04:46;;;;;;;0.60;0.60;;;-1.50;99.90;;;;;;5110188;28;20243;-71
2023/12/12 12:07:12;;;;;;;0.77;0.77;;;-1.50;99.90;;;;;;5110313;28;20547;-70
2023/12/12 12:09:41;;;;;;;0.63;0.63;;;-1.50;99.90;;;;;;5110202;28;20210;-72
2023/12/12 12:12:10;;;;;;;0.70;0.70;;;-1.50;99.90;;;;;;5110114;28;20218;-71
2023/12/12 12:14:36;;;;;;;0.70;0.70;;;-1.50;99.90;;;;;;5109777;28;20206;-71
2023/12/12 12:17:02;;;;;;;0.80;0.80;;;-1.50;99.90;;;;;;5110055;28;20191;-71
2023/12/12 12:19:37;;;;;;;0.80;0.80;;;-1.50;99.90;;;;;;5109565;28;20675;-71
2023/12/12 12:22:09;;;;;;;0.80;0.80;;;-1.60;99.90;;;;;;5099932;28;20200;-71
2023/12/12 12:24:45;;;;;;;0.90;0.90;;;-1.50;99.90;;;;;;5089298;28;20275;-71
2023/12/12 12:27:12;;;;;;;0.73;0.73;;;-1.50;99.90;;;;;;5071269;28;20196;-71
2023/12/12 12:29:38;;;;;;;0.98;0.98;;;-1.60;99.90;;;;;;5071035;28;20203;-71
2023/12/12 12:32:13;;;;;;;0.73;0.73;;;-1.60;99.90;;;;;;5089406;28;20321;-71
2023/12/12 12:34:39;;;;;;;0.80;0.80;;;-1.60;99.90;;;;;;5089120;28;20199;-71
2023/12/12 12:37:05;;;;;;;0.70;0.70;;;-1.60;99.90;;;;;;5089234;28;20314;-71
2023/12/12 12:39:41;;;;;;;0.70;0.70;;;-1.60;99.90;;;;;;5088699;28;20287;-71
2023/12/12 12:42:07;;;;;;;0.80;0.80;;;-1.60;99.90;;;;;;5104622;28;20199;-71
2023/12/12 12:44:33;;;;;;;0.80;0.80;;;-1.60;99.90;;;;;;5070428;28;20575;-71